sensor_id;sensor_type;location;lat;lon;timestamp;P1;durP1;ratioP1;P2;durP2;ratioP2
25549;SDS011;13444;50.562;7.262;2023-04-24T00:01:37;1.00;;;0.45;;
25549;SDS011;13444;50.562;7.262;2023-04-24T00:04:04;3.70;;;0.60;;
25549;SDS011;13444;50.562;7.262;2023-04-24T00:06:31;1.27;;;0.57;;
25549;SDS011;13444;50.562;7.262;2023-04-24T00:09:02;2.70;;;0.60;;
25549;SDS011;13444;50.562;7.262;2023-04-24T00:11:28;1.85;;;0.85;;
25549;SDS011;13444;50.562;7.262;2023-04-24T00:13:54;0.50;;;0.50;;
25549;SDS011;13444;50.562;7.262;2023-04-24T00:16:21;0.68;;;0.50;;
25549;SDS011;13444;50.562;7.262;2023-04-24T00:18:47;2.72;;;0.60;;
25549;SDS011;13444;50.562;7.262;2023-04-24T00:21:13;0.80;;;0.40;;
25549;SDS011;13444;50.562;7.262;2023-04-24T00:23:39;1.60;;;0.60;;
25549;SDS011;13444;50.562;7.262;2023-04-24T00:26:05;1.25;;;0.60;;
25549;SDS011;13444;50.562;7.262;2023-04-24T00:28:30;0.60;;;0.52;;
25549;SDS011;13444;50.562;7.262;2023-04-24T00:30:56;0.70;;;0.70;;
25549;SDS011;13444;50.562;7.262;2023-04-24T00:33:22;1.85;;;0.70;;
25549;SDS011;13444;50.562;7.262;2023-04-24T00:35:47;1.77;;;0.60;;
25549;SDS011;13444;50.562;7.262;2023-04-24T00:38:13;1.02;;;0.65;;
25549;SDS011;13444;50.562;7.262;2023-04-24T00:40:38;1.27;;;0.70;;
25549;SDS011;13444;50.562;7.262;2023-04-24T00:43:04;0.60;;;0.50;;
25549;SDS011;13444;50.562;7.262;2023-04-24T00:45:30;0.43;;;0.43;;
25549;SDS011;13444;50.562;7.262;2023-04-24T00:47:56;0.70;;;0.68;;
25549;SDS011;13444;50.562;7.262;2023-04-24T00:50:22;1.65;;;0.60;;
25549;SDS011;13444;50.562;7.262;2023-04-24T00:52:49;0.47;;;0.47;;
25549;SDS011;13444;50.562;7.262;2023-04-24T00:55:14;0.85;;;0.55;;
25549;SDS011;13444;50.562;7.262;2023-04-24T00:57:40;1.17;;;0.50;;
25549;SDS011;13444;50.562;7.262;2023-04-24T01:00:06;0.57;;;0.50;;
25549;SDS011;13444;50.562;7.262;2023-04-24T01:02:35;0.80;;;0.60;;
25549;SDS011;13444;50.562;7.262;2023-04-24T01:05:01;0.82;;;0.50;;
25549;SDS011;13444;50.562;7.262;2023-04-24T01:07:28;0.47;;;0.47;;
25549;SDS011;13444;50.562;7.262;2023-04-24T01:09:54;0.95;;;0.60;;
25549;SDS011;13444;50.562;7.262;2023-04-24T01:12:19;0.60;;;0.50;;
25549;SDS011;13444;50.562;7.262;2023-04-24T01:14:45;1.20;;;0.60;;
25549;SDS011;13444;50.562;7.262;2023-04-24T01:17:11;2.58;;;0.60;;
25549;SDS011;13444;50.562;7.262;2023-04-24T01:19:37;0.68;;;0.40;;
25549;SDS011;13444;50.562;7.262;2023-04-24T01:22:03;0.40;;;0.40;;
25549;SDS011;13444;50.562;7.262;2023-04-24T01:24:33;2.65;;;0.70;;
25549;SDS011;13444;50.562;7.262;2023-04-24T01:26:59;0.88;;;0.50;;
25549;SDS011;13444;50.562;7.262;2023-04-24T01:29:26;1.20;;;0.45;;
25549;SDS011;13444;50.562;7.262;2023-04-24T01:31:52;0.57;;;0.50;;
25549;SDS011;13444;50.562;7.262;2023-04-24T01:34:17;1.08;;;0.57;;
25549;SDS011;13444;50.562;7.262;2023-04-24T01:36:43;0.60;;;0.60;;
25549;SDS011;13444;50.562;7.262;2023-04-24T01:39:11;1.73;;;0.45;;
25549;SDS011;13444;50.562;7.262;2023-04-24T01:41:37;0.85;;;0.70;;
25549;SDS011;13444;50.562;7.262;2023-04-24T01:44:02;0.75;;;0.68;;
25549;SDS011;13444;50.562;7.262;2023-04-24T01:46:28;0.50;;;0.50;;
25549;SDS011;13444;50.562;7.262;2023-04-24T01:48:55;1.20;;;0.60;;
25549;SDS011;13444;50.562;7.262;2023-04-24T01:51:21;0.80;;;0.60;;
25549;SDS011;13444;50.562;7.262;2023-04-24T01:53:46;1.42;;;0.60;;
25549;SDS011;13444;50.562;7.262;2023-04-24T01:56:12;1.58;;;0.70;;
25549;SDS011;13444;50.562;7.262;2023-04-24T01:58:38;1.00;;;0.82;;
25549;SDS011;13444;50.562;7.262;2023-04-24T02:01:06;1.42;;;1.10;;
25549;SDS011;13444;50.562;7.262;2023-04-24T02:03:31;2.97;;;1.17;;
25549;SDS011;13444;50.562;7.262;2023-04-24T02:05:57;1.85;;;1.13;;
25549;SDS011;13444;50.562;7.262;2023-04-24T02:08:22;2.70;;;1.27;;
25549;SDS011;13444;50.562;7.262;2023-04-24T02:10:49;1.30;;;1.20;;
25549;SDS011;13444;50.562;7.262;2023-04-24T02:13:14;3.33;;;1.30;;
25549;SDS011;13444;50.562;7.262;2023-04-24T02:15:40;1.60;;;1.20;;
25549;SDS011;13444;50.562;7.262;2023-04-24T02:18:05;4.03;;;1.50;;
25549;SDS011;13444;50.562;7.262;2023-04-24T02:20:31;1.40;;;1.30;;
25549;SDS011;13444;50.562;7.262;2023-04-24T02:22:59;4.82;;;1.95;;
25549;SDS011;13444;50.562;7.262;2023-04-24T02:25:24;2.30;;;1.45;;
25549;SDS011;13444;50.562;7.262;2023-04-24T02:27:50;4.32;;;1.63;;
25549;SDS011;13444;50.562;7.262;2023-04-24T02:30:15;1.63;;;1.30;;
25549;SDS011;13444;50.562;7.262;2023-04-24T02:32:41;1.75;;;1.65;;
25549;SDS011;13444;50.562;7.262;2023-04-24T02:35:06;2.22;;;1.52;;
25549;SDS011;13444;50.562;7.262;2023-04-24T02:37:32;1.90;;;1.27;;
25549;SDS011;13444;50.562;7.262;2023-04-24T02:39:57;1.70;;;1.48;;
25549;SDS011;13444;50.562;7.262;2023-04-24T02:42:23;1.90;;;1.70;;
25549;SDS011;13444;50.562;7.262;2023-04-24T02:44:49;2.17;;;1.90;;
25549;SDS011;13444;50.562;7.262;2023-04-24T02:47:16;2.40;;;2.20;;
25549;SDS011;13444;50.562;7.262;2023-04-24T02:49:41;2.58;;;1.95;;
25549;SDS011;13444;50.562;7.262;2023-04-24T02:52:07;4.20;;;2.50;;
25549;SDS011;13444;50.562;7.262;2023-04-24T02:54:32;2.95;;;2.25;;
25549;SDS011;13444;50.562;7.262;2023-04-24T02:56:58;3.38;;;2.15;;
25549;SDS011;13444;50.562;7.262;2023-04-24T02:59:23;3.03;;;2.20;;
25549;SDS011;13444;50.562;7.262;2023-04-24T03:01:49;2.65;;;2.33;;
25549;SDS011;13444;50.562;7.262;2023-04-24T03:04:15;3.25;;;2.40;;
25549;SDS011;13444;50.562;7.262;2023-04-24T03:06:40;4.45;;;2.88;;
25549;SDS011;13444;50.562;7.262;2023-04-24T03:09:06;3.47;;;2.45;;
25549;SDS011;13444;50.562;7.262;2023-04-24T03:11:31;2.63;;;2.28;;
25549;SDS011;13444;50.562;7.262;2023-04-24T03:13:57;3.55;;;2.20;;
25549;SDS011;13444;50.562;7.262;2023-04-24T03:16:22;3.25;;;2.40;;
25549;SDS011;13444;50.562;7.262;2023-04-24T03:18:48;3.70;;;2.75;;
25549;SDS011;13444;50.562;7.262;2023-04-24T03:21:13;3.75;;;2.65;;
25549;SDS011;13444;50.562;7.262;2023-04-24T03:23:39;3.97;;;2.55;;
25549;SDS011;13444;50.562;7.262;2023-04-24T03:26:04;2.70;;;2.28;;
25549;SDS011;13444;50.562;7.262;2023-04-24T03:28:30;5.97;;;2.75;;
25549;SDS011;13444;50.562;7.262;2023-04-24T03:30:55;3.35;;;2.67;;
25549;SDS011;13444;50.562;7.262;2023-04-24T03:33:21;6.53;;;2.50;;
25549;SDS011;13444;50.562;7.262;2023-04-24T03:35:46;2.65;;;2.28;;
25549;SDS011;13444;50.562;7.262;2023-04-24T03:38:12;5.20;;;3.08;;
25549;SDS011;13444;50.562;7.262;2023-04-24T03:40:37;4.15;;;2.85;;
25549;SDS011;13444;50.562;7.262;2023-04-24T03:43:03;4.07;;;2.65;;
25549;SDS011;13444;50.562;7.262;2023-04-24T03:45:28;4.40;;;3.00;;
25549;SDS011;13444;50.562;7.262;2023-04-24T03:47:54;3.90;;;3.30;;
25549;SDS011;13444;50.562;7.262;2023-04-24T03:50:19;4.63;;;3.03;;
25549;SDS011;13444;50.562;7.262;2023-04-24T03:52:45;4.68;;;3.15;;
25549;SDS011;13444;50.562;7.262;2023-04-24T03:55:10;3.80;;;3.15;;
25549;SDS011;13444;50.562;7.262;2023-04-24T03:57:37;4.70;;;3.10;;
25549;SDS011;13444;50.562;7.262;2023-04-24T04:00:04;5.75;;;3.65;;
25549;SDS011;13444;50.562;7.262;2023-04-24T04:02:31;5.88;;;3.42;;
25549;SDS011;13444;50.562;7.262;2023-04-24T04:04:56;6.07;;;3.40;;
25549;SDS011;13444;50.562;7.262;2023-04-24T04:07:22;4.38;;;3.50;;
25549;SDS011;13444;50.562;7.262;2023-04-24T04:09:47;4.55;;;3.67;;
25549;SDS011;13444;50.562;7.262;2023-04-24T04:12:13;6.70;;;4.80;;
25549;SDS011;13444;50.562;7.262;2023-04-24T04:14:38;7.35;;;4.38;;
25549;SDS011;13444;50.562;7.262;2023-04-24T04:17:04;6.80;;;4.15;;
25549;SDS011;13444;50.562;7.262;2023-04-24T04:19:29;7.03;;;4.22;;
25549;SDS011;13444;50.562;7.262;2023-04-24T04:21:55;7.97;;;4.60;;
25549;SDS011;13444;50.562;7.262;2023-04-24T04:24:21;5.60;;;4.40;;
25549;SDS011;13444;50.562;7.262;2023-04-24T04:26:47;5.80;;;3.90;;
25549;SDS011;13444;50.562;7.262;2023-04-24T04:29:15;5.80;;;3.67;;
25549;SDS011;13444;50.562;7.262;2023-04-24T04:31:42;4.78;;;4.13;;
25549;SDS011;13444;50.562;7.262;2023-04-24T04:34:08;4.55;;;3.92;;
25549;SDS011;13444;50.562;7.262;2023-04-24T04:36:34;5.85;;;3.85;;
25549;SDS011;13444;50.562;7.262;2023-04-24T04:39:01;4.10;;;3.70;;
25549;SDS011;13444;50.562;7.262;2023-04-24T04:41:28;4.18;;;3.60;;
25549;SDS011;13444;50.562;7.262;2023-04-24T04:43:53;4.38;;;3.50;;
25549;SDS011;13444;50.562;7.262;2023-04-24T04:46:19;6.35;;;3.47;;
25549;SDS011;13444;50.562;7.262;2023-04-24T04:48:44;7.15;;;3.88;;
25549;SDS011;13444;50.562;7.262;2023-04-24T04:51:10;4.45;;;3.72;;
25549;SDS011;13444;50.562;7.262;2023-04-24T04:53:36;6.85;;;3.70;;
25549;SDS011;13444;50.562;7.262;2023-04-24T04:56:02;4.28;;;3.22;;
25549;SDS011;13444;50.562;7.262;2023-04-24T04:58:28;4.97;;;3.30;;
25549;SDS011;13444;50.562;7.262;2023-04-24T05:00:53;5.63;;;3.47;;
25549;SDS011;13444;50.562;7.262;2023-04-24T05:03:19;5.85;;;3.20;;
25549;SDS011;13444;50.562;7.262;2023-04-24T05:05:44;6.65;;;3.53;;
25549;SDS011;13444;50.562;7.262;2023-04-24T05:08:10;4.20;;;3.30;;
25549;SDS011;13444;50.562;7.262;2023-04-24T05:10:35;6.15;;;3.70;;
25549;SDS011;13444;50.562;7.262;2023-04-24T05:13:02;4.15;;;2.90;;
25549;SDS011;13444;50.562;7.262;2023-04-24T05:15:28;4.88;;;3.05;;
25549;SDS011;13444;50.562;7.262;2023-04-24T05:17:53;4.78;;;3.20;;
25549;SDS011;13444;50.562;7.262;2023-04-24T05:20:19;4.57;;;2.72;;
25549;SDS011;13444;50.562;7.262;2023-04-24T05:22:44;6.22;;;3.08;;
25549;SDS011;13444;50.562;7.262;2023-04-24T05:25:10;5.57;;;3.10;;
25549;SDS011;13444;50.562;7.262;2023-04-24T05:27:37;4.78;;;3.30;;
25549;SDS011;13444;50.562;7.262;2023-04-24T05:30:03;3.78;;;2.72;;
25549;SDS011;13444;50.562;7.262;2023-04-24T05:32:29;4.25;;;3.10;;
25549;SDS011;13444;50.562;7.262;2023-04-24T05:34:55;3.60;;;2.90;;
25549;SDS011;13444;50.562;7.262;2023-04-24T05:37:20;5.07;;;3.30;;
25549;SDS011;13444;50.562;7.262;2023-04-24T05:39:46;6.28;;;3.70;;
25549;SDS011;13444;50.562;7.262;2023-04-24T05:42:11;4.35;;;3.13;;
25549;SDS011;13444;50.562;7.262;2023-04-24T05:44:37;6.22;;;3.03;;
25549;SDS011;13444;50.562;7.262;2023-04-24T05:47:02;5.30;;;3.63;;
25549;SDS011;13444;50.562;7.262;2023-04-24T05:49:28;3.95;;;3.53;;
25549;SDS011;13444;50.562;7.262;2023-04-24T05:51:53;4.57;;;3.30;;
25549;SDS011;13444;50.562;7.262;2023-04-24T05:54:19;7.43;;;3.30;;
25549;SDS011;13444;50.562;7.262;2023-04-24T05:56:45;5.53;;;3.40;;
25549;SDS011;13444;50.562;7.262;2023-04-24T05:59:11;4.90;;;3.72;;
25549;SDS011;13444;50.562;7.262;2023-04-24T06:01:36;3.97;;;3.58;;
25549;SDS011;13444;50.562;7.262;2023-04-24T06:04:03;7.35;;;4.10;;
25549;SDS011;13444;50.562;7.262;2023-04-24T06:06:29;5.68;;;3.40;;
25549;SDS011;13444;50.562;7.262;2023-04-24T06:08:54;8.35;;;4.05;;
25549;SDS011;13444;50.562;7.262;2023-04-24T06:11:20;5.28;;;3.85;;
25549;SDS011;13444;50.562;7.262;2023-04-24T06:13:46;6.78;;;4.85;;
25549;SDS011;13444;50.562;7.262;2023-04-24T06:16:11;4.88;;;4.07;;
25549;SDS011;13444;50.562;7.262;2023-04-24T06:18:37;6.30;;;4.13;;
25549;SDS011;13444;50.562;7.262;2023-04-24T06:21:03;7.40;;;4.30;;
25549;SDS011;13444;50.562;7.262;2023-04-24T06:23:28;5.18;;;4.35;;
25549;SDS011;13444;50.562;7.262;2023-04-24T06:25:54;6.75;;;4.00;;
25549;SDS011;13444;50.562;7.262;2023-04-24T06:28:19;5.10;;;4.35;;
25549;SDS011;13444;50.562;7.262;2023-04-24T06:30:45;5.55;;;4.15;;
25549;SDS011;13444;50.562;7.262;2023-04-24T06:33:10;7.50;;;4.85;;
25549;SDS011;13444;50.562;7.262;2023-04-24T06:35:36;8.13;;;4.15;;
25549;SDS011;13444;50.562;7.262;2023-04-24T06:38:03;4.75;;;4.15;;
25549;SDS011;13444;50.562;7.262;2023-04-24T06:40:28;7.63;;;4.22;;
25549;SDS011;13444;50.562;7.262;2023-04-24T06:42:55;5.50;;;4.05;;
25549;SDS011;13444;50.562;7.262;2023-04-24T06:45:20;4.60;;;4.00;;
25549;SDS011;13444;50.562;7.262;2023-04-24T06:47:46;6.47;;;4.60;;
25549;SDS011;13444;50.562;7.262;2023-04-24T06:50:12;6.05;;;4.10;;
25549;SDS011;13444;50.562;7.262;2023-04-24T06:52:37;7.95;;;3.63;;
25549;SDS011;13444;50.562;7.262;2023-04-24T06:55:03;6.78;;;3.83;;
25549;SDS011;13444;50.562;7.262;2023-04-24T06:57:29;4.18;;;3.72;;
25549;SDS011;13444;50.562;7.262;2023-04-24T06:59:55;4.63;;;3.33;;
25549;SDS011;13444;50.562;7.262;2023-04-24T07:02:20;7.07;;;3.97;;
25549;SDS011;13444;50.562;7.262;2023-04-24T07:04:46;5.32;;;3.65;;
25549;SDS011;13444;50.562;7.262;2023-04-24T07:07:12;4.75;;;3.45;;
25549;SDS011;13444;50.562;7.262;2023-04-24T07:09:39;6.68;;;3.83;;
25549;SDS011;13444;50.562;7.262;2023-04-24T07:12:09;5.40;;;3.22;;
25549;SDS011;13444;50.562;7.262;2023-04-24T07:14:35;4.63;;;3.00;;
25549;SDS011;13444;50.562;7.262;2023-04-24T07:17:02;3.53;;;2.60;;
25549;SDS011;13444;50.562;7.262;2023-04-24T07:19:31;4.57;;;2.33;;
25549;SDS011;13444;50.562;7.262;2023-04-24T07:21:58;5.85;;;2.78;;
25549;SDS011;13444;50.562;7.262;2023-04-24T07:24:24;2.92;;;2.28;;
25549;SDS011;13444;50.562;7.262;2023-04-24T07:26:51;3.80;;;2.25;;
25549;SDS011;13444;50.562;7.262;2023-04-24T07:29:17;3.17;;;2.40;;
25549;SDS011;13444;50.562;7.262;2023-04-24T07:31:44;2.03;;;1.80;;
25549;SDS011;13444;50.562;7.262;2023-04-24T07:34:10;2.92;;;2.00;;
25549;SDS011;13444;50.562;7.262;2023-04-24T07:36:35;2.42;;;1.77;;
25549;SDS011;13444;50.562;7.262;2023-04-24T07:39:03;3.22;;;1.70;;
25549;SDS011;13444;50.562;7.262;2023-04-24T07:41:29;2.65;;;1.60;;
25549;SDS011;13444;50.562;7.262;2023-04-24T07:43:54;1.67;;;1.58;;
25549;SDS011;13444;50.562;7.262;2023-04-24T07:46:20;2.47;;;1.80;;
25549;SDS011;13444;50.562;7.262;2023-04-24T07:48:46;3.20;;;1.63;;
25549;SDS011;13444;50.562;7.262;2023-04-24T07:51:13;2.38;;;1.77;;
25549;SDS011;13444;50.562;7.262;2023-04-24T07:53:39;1.60;;;1.30;;
25549;SDS011;13444;50.562;7.262;2023-04-24T07:56:05;2.92;;;1.48;;
25549;SDS011;13444;50.562;7.262;2023-04-24T07:58:30;1.50;;;1.40;;
25549;SDS011;13444;50.562;7.262;2023-04-24T08:00:56;1.38;;;1.25;;
25549;SDS011;13444;50.562;7.262;2023-04-24T08:03:22;2.83;;;1.55;;
25549;SDS011;13444;50.562;7.262;2023-04-24T08:05:47;2.75;;;1.48;;
25549;SDS011;13444;50.562;7.262;2023-04-24T08:08:13;1.48;;;1.15;;
25549;SDS011;13444;50.562;7.262;2023-04-24T08:10:38;1.77;;;1.15;;
25549;SDS011;13444;50.562;7.262;2023-04-24T08:13:04;3.17;;;1.30;;
25549;SDS011;13444;50.562;7.262;2023-04-24T08:15:30;3.63;;;2.47;;
25549;SDS011;13444;50.562;7.262;2023-04-24T08:17:55;2.05;;;1.35;;
25549;SDS011;13444;50.562;7.262;2023-04-24T08:20:22;1.80;;;1.38;;
25549;SDS011;13444;50.562;7.262;2023-04-24T08:22:47;1.73;;;1.23;;
25549;SDS011;13444;50.562;7.262;2023-04-24T08:25:13;2.15;;;1.40;;
25549;SDS011;13444;50.562;7.262;2023-04-24T08:27:39;1.58;;;1.27;;
25549;SDS011;13444;50.562;7.262;2023-04-24T08:30:05;1.85;;;1.42;;
25549;SDS011;13444;50.562;7.262;2023-04-24T08:32:32;2.83;;;1.20;;
25549;SDS011;13444;50.562;7.262;2023-04-24T08:34:58;1.27;;;1.05;;
25549;SDS011;13444;50.562;7.262;2023-04-24T08:37:24;1.20;;;1.10;;
25549;SDS011;13444;50.562;7.262;2023-04-24T08:39:50;1.88;;;1.30;;
25549;SDS011;13444;50.562;7.262;2023-04-24T08:42:17;1.58;;;1.05;;
25549;SDS011;13444;50.562;7.262;2023-04-24T08:44:43;1.73;;;0.93;;
25549;SDS011;13444;50.562;7.262;2023-04-24T08:47:09;2.28;;;1.15;;
25549;SDS011;13444;50.562;7.262;2023-04-24T08:49:36;1.17;;;1.00;;
25549;SDS011;13444;50.562;7.262;2023-04-24T08:52:02;2.53;;;0.60;;
25549;SDS011;13444;50.562;7.262;2023-04-24T08:54:29;0.73;;;0.73;;
25549;SDS011;13444;50.562;7.262;2023-04-24T08:56:58;0.40;;;0.40;;
25549;SDS011;13444;50.562;7.262;2023-04-24T08:59:26;0.82;;;0.60;;
25549;SDS011;13444;50.562;7.262;2023-04-24T09:01:52;1.00;;;0.70;;
25549;SDS011;13444;50.562;7.262;2023-04-24T09:04:19;1.15;;;0.40;;
25549;SDS011;13444;50.562;7.262;2023-04-24T09:06:47;1.42;;;0.75;;
25549;SDS011;13444;50.562;7.262;2023-04-24T09:09:14;0.65;;;0.63;;
25549;SDS011;13444;50.562;7.262;2023-04-24T09:11:41;0.85;;;0.70;;
25549;SDS011;13444;50.562;7.262;2023-04-24T09:14:08;1.05;;;0.95;;
25549;SDS011;13444;50.562;7.262;2023-04-24T09:16:35;1.55;;;0.70;;
25549;SDS011;13444;50.562;7.262;2023-04-24T09:19:01;1.02;;;0.90;;
25549;SDS011;13444;50.562;7.262;2023-04-24T09:21:30;1.70;;;1.00;;
25549;SDS011;13444;50.562;7.262;2023-04-24T09:24:01;1.45;;;1.15;;
25549;SDS011;13444;50.562;7.262;2023-04-24T09:26:38;0.73;;;0.68;;
25549;SDS011;13444;50.562;7.262;2023-04-24T09:29:04;1.13;;;1.02;;
25549;SDS011;13444;50.562;7.262;2023-04-24T09:31:30;1.52;;;0.80;;
25549;SDS011;13444;50.562;7.262;2023-04-24T09:34:00;0.85;;;0.70;;
25549;SDS011;13444;50.562;7.262;2023-04-24T09:36:37;2.08;;;0.70;;
25549;SDS011;13444;50.562;7.262;2023-04-24T09:39:13;0.73;;;0.60;;
25549;SDS011;13444;50.562;7.262;2023-04-24T09:41:50;0.60;;;0.60;;
25549;SDS011;13444;50.562;7.262;2023-04-24T09:44:26;1.30;;;0.85;;
25549;SDS011;13444;50.562;7.262;2023-04-24T09:46:57;0.80;;;0.77;;
25549;SDS011;13444;50.562;7.262;2023-04-24T09:49:25;1.23;;;0.70;;
25549;SDS011;13444;50.562;7.262;2023-04-24T09:52:10;0.77;;;0.70;;
25549;SDS011;13444;50.562;7.262;2023-04-24T09:54:36;1.35;;;0.70;;
25549;SDS011;13444;50.562;7.262;2023-04-24T09:57:02;0.60;;;0.60;;
25549;SDS011;13444;50.562;7.262;2023-04-24T09:59:28;0.60;;;0.60;;
25549;SDS011;13444;50.562;7.262;2023-04-24T10:01:54;0.93;;;0.80;;
25549;SDS011;13444;50.562;7.262;2023-04-24T10:04:27;0.73;;;0.73;;
25549;SDS011;13444;50.562;7.262;2023-04-24T10:06:54;0.60;;;0.60;;
25549;SDS011;13444;50.562;7.262;2023-04-24T10:09:21;0.65;;;0.65;;
25549;SDS011;13444;50.562;7.262;2023-04-24T10:11:49;1.27;;;0.77;;
25549;SDS011;13444;50.562;7.262;2023-04-24T10:14:17;2.90;;;0.70;;
25549;SDS011;13444;50.562;7.262;2023-04-24T10:16:45;0.60;;;0.60;;
25549;SDS011;13444;50.562;7.262;2023-04-24T10:19:12;1.58;;;0.80;;
25549;SDS011;13444;50.562;7.262;2023-04-24T10:21:39;0.70;;;0.70;;
25549;SDS011;13444;50.562;7.262;2023-04-24T10:24:14;0.82;;;0.70;;
25549;SDS011;13444;50.562;7.262;2023-04-24T10:26:46;1.50;;;0.70;;
25549;SDS011;13444;50.562;7.262;2023-04-24T10:29:13;0.70;;;0.70;;
25549;SDS011;13444;50.562;7.262;2023-04-24T10:31:40;0.80;;;0.80;;
25549;SDS011;13444;50.562;7.262;2023-04-24T10:34:06;1.10;;;0.85;;
25549;SDS011;13444;50.562;7.262;2023-04-24T10:36:33;0.70;;;0.70;;
25549;SDS011;13444;50.562;7.262;2023-04-24T10:39:01;1.25;;;0.90;;
25549;SDS011;13444;50.562;7.262;2023-04-24T10:41:29;1.23;;;0.98;;
25549;SDS011;13444;50.562;7.262;2023-04-24T10:44:05;1.45;;;0.98;;
25549;SDS011;13444;50.562;7.262;2023-04-24T10:46:31;1.50;;;1.00;;
25549;SDS011;13444;50.562;7.262;2023-04-24T10:48:57;2.33;;;1.38;;
25549;SDS011;13444;50.562;7.262;2023-04-24T10:51:23;2.05;;;1.05;;
25549;SDS011;13444;50.562;7.262;2023-04-24T10:54:23;1.67;;;1.50;;
25549;SDS011;13444;50.562;7.262;2023-04-24T10:59:51;3.30;;;2.08;;
25549;SDS011;13444;50.562;7.262;2023-04-24T11:02:36;3.45;;;2.10;;
25549;SDS011;13444;50.562;7.262;2023-04-24T11:05:03;4.72;;;3.00;;
25549;SDS011;13444;50.562;7.262;2023-04-24T11:07:29;5.32;;;3.10;;
25549;SDS011;13444;50.562;7.262;2023-04-24T11:09:58;3.58;;;2.60;;
25549;SDS011;13444;50.562;7.262;2023-04-24T11:12:25;5.97;;;3.08;;
25549;SDS011;13444;50.562;7.262;2023-04-24T11:17:30;4.63;;;2.13;;
25549;SDS011;13444;50.562;7.262;2023-04-24T11:20:05;5.80;;;3.08;;
25549;SDS011;13444;50.562;7.262;2023-04-24T11:22:34;9.25;;;2.80;;
25549;SDS011;13444;50.562;7.262;2023-04-24T11:25:01;4.00;;;2.70;;
25549;SDS011;13444;50.562;7.262;2023-04-24T11:27:31;5.57;;;2.22;;
25549;SDS011;13444;50.562;7.262;2023-04-24T11:30:04;3.60;;;2.38;;
25549;SDS011;13444;50.562;7.262;2023-04-24T11:35:04;5.30;;;2.60;;
25549;SDS011;13444;50.562;7.262;2023-04-24T11:37:34;5.70;;;2.63;;
25549;SDS011;13444;50.562;7.262;2023-04-24T11:40:02;5.45;;;2.50;;
25549;SDS011;13444;50.562;7.262;2023-04-24T11:42:33;4.72;;;2.50;;
25549;SDS011;13444;50.562;7.262;2023-04-24T11:44:59;6.25;;;2.35;;
25549;SDS011;13444;50.562;7.262;2023-04-24T11:47:30;4.22;;;2.55;;
25549;SDS011;13444;50.562;7.262;2023-04-24T11:49:58;4.07;;;2.58;;
25549;SDS011;13444;50.562;7.262;2023-04-24T11:52:25;9.88;;;2.90;;
25549;SDS011;13444;50.562;7.262;2023-04-24T11:54:54;3.83;;;2.65;;
25549;SDS011;13444;50.562;7.262;2023-04-24T11:57:20;4.60;;;2.50;;
25549;SDS011;13444;50.562;7.262;2023-04-24T11:59:47;7.38;;;2.50;;
25549;SDS011;13444;50.562;7.262;2023-04-24T12:02:20;4.88;;;2.65;;
25549;SDS011;13444;50.562;7.262;2023-04-24T12:04:46;3.45;;;2.13;;
25549;SDS011;13444;50.562;7.262;2023-04-24T12:07:12;2.42;;;1.60;;
25549;SDS011;13444;50.562;7.262;2023-04-24T12:09:45;1.80;;;1.70;;
25549;SDS011;13444;50.562;7.262;2023-04-24T12:12:12;3.08;;;2.10;;
25549;SDS011;13444;50.562;7.262;2023-04-24T12:14:43;3.63;;;2.10;;
25549;SDS011;13444;50.562;7.262;2023-04-24T12:17:09;5.00;;;2.28;;
25549;SDS011;13444;50.562;7.262;2023-04-24T12:19:35;4.07;;;2.22;;
25549;SDS011;13444;50.562;7.262;2023-04-24T12:22:01;5.93;;;2.90;;
25549;SDS011;13444;50.562;7.262;2023-04-24T12:24:28;3.83;;;2.25;;
25549;SDS011;13444;50.562;7.262;2023-04-24T12:26:55;4.47;;;2.50;;
25549;SDS011;13444;50.562;7.262;2023-04-24T12:29:21;4.38;;;3.20;;
25549;SDS011;13444;50.562;7.262;2023-04-24T12:31:47;5.50;;;3.47;;
25549;SDS011;13444;50.562;7.262;2023-04-24T12:34:22;5.18;;;3.38;;
25549;SDS011;13444;50.562;7.262;2023-04-24T12:36:49;6.55;;;3.40;;
25549;SDS011;13444;50.562;7.262;2023-04-24T12:39:18;6.85;;;2.97;;
25549;SDS011;13444;50.562;7.262;2023-04-24T12:41:57;8.40;;;3.60;;
25549;SDS011;13444;50.562;7.262;2023-04-24T12:44:32;6.47;;;3.67;;
25549;SDS011;13444;50.562;7.262;2023-04-24T12:46:59;6.03;;;3.00;;
25549;SDS011;13444;50.562;7.262;2023-04-24T12:49:25;8.27;;;3.28;;
25549;SDS011;13444;50.562;7.262;2023-04-24T12:51:51;5.95;;;3.55;;
25549;SDS011;13444;50.562;7.262;2023-04-24T12:54:17;8.60;;;4.07;;
25549;SDS011;13444;50.562;7.262;2023-04-24T12:56:43;7.55;;;3.50;;
25549;SDS011;13444;50.562;7.262;2023-04-24T12:59:08;7.30;;;3.30;;
25549;SDS011;13444;50.562;7.262;2023-04-24T13:01:34;6.43;;;3.47;;
25549;SDS011;13444;50.562;7.262;2023-04-24T13:03:59;6.03;;;3.47;;
25549;SDS011;13444;50.562;7.262;2023-04-24T13:06:25;6.47;;;3.60;;
25549;SDS011;13444;50.562;7.262;2023-04-24T13:08:51;6.15;;;3.83;;
25549;SDS011;13444;50.562;7.262;2023-04-24T13:11:17;6.55;;;3.40;;
25549;SDS011;13444;50.562;7.262;2023-04-24T13:13:42;6.45;;;3.63;;
25549;SDS011;13444;50.562;7.262;2023-04-24T13:16:08;5.35;;;3.28;;
25549;SDS011;13444;50.562;7.262;2023-04-24T13:18:34;6.95;;;3.50;;
25549;SDS011;13444;50.562;7.262;2023-04-24T13:20:59;6.55;;;3.67;;
25549;SDS011;13444;50.562;7.262;2023-04-24T13:23:25;6.95;;;3.85;;
25549;SDS011;13444;50.562;7.262;2023-04-24T13:25:51;6.65;;;3.80;;
25549;SDS011;13444;50.562;7.262;2023-04-24T13:28:16;5.32;;;3.22;;
25549;SDS011;13444;50.562;7.262;2023-04-24T13:30:42;5.20;;;3.42;;
25549;SDS011;13444;50.562;7.262;2023-04-24T13:33:08;6.00;;;3.42;;
25549;SDS011;13444;50.562;7.262;2023-04-24T13:35:33;4.18;;;3.35;;
25549;SDS011;13444;50.562;7.262;2023-04-24T13:37:59;5.30;;;2.92;;
25549;SDS011;13444;50.562;7.262;2023-04-24T13:40:26;6.20;;;2.80;;
25549;SDS011;13444;50.562;7.262;2023-04-24T13:42:52;6.03;;;3.55;;
25549;SDS011;13444;50.562;7.262;2023-04-24T13:45:17;5.70;;;3.40;;
25549;SDS011;13444;50.562;7.262;2023-04-24T13:47:43;5.35;;;3.03;;
25549;SDS011;13444;50.562;7.262;2023-04-24T13:50:09;7.38;;;3.28;;
25549;SDS011;13444;50.562;7.262;2023-04-24T13:52:35;5.90;;;3.33;;
25549;SDS011;13444;50.562;7.262;2023-04-24T13:55:00;7.00;;;3.22;;
25549;SDS011;13444;50.562;7.262;2023-04-24T13:57:26;5.70;;;3.97;;
25549;SDS011;13444;50.562;7.262;2023-04-24T13:59:53;5.95;;;3.55;;
25549;SDS011;13444;50.562;7.262;2023-04-24T14:02:20;7.13;;;4.00;;
25549;SDS011;13444;50.562;7.262;2023-04-24T14:04:46;9.38;;;3.83;;
25549;SDS011;13444;50.562;7.262;2023-04-24T14:07:13;7.10;;;4.40;;
25549;SDS011;13444;50.562;7.262;2023-04-24T14:09:38;6.78;;;3.65;;
25549;SDS011;13444;50.562;7.262;2023-04-24T14:12:04;7.68;;;4.38;;
25549;SDS011;13444;50.562;7.262;2023-04-24T14:14:30;8.25;;;4.25;;
25549;SDS011;13444;50.562;7.262;2023-04-24T14:16:56;8.38;;;3.95;;
25549;SDS011;13444;50.562;7.262;2023-04-24T14:19:22;5.93;;;3.88;;
25549;SDS011;13444;50.562;7.262;2023-04-24T14:21:48;7.72;;;4.38;;
25549;SDS011;13444;50.562;7.262;2023-04-24T14:24:14;8.80;;;3.67;;
25549;SDS011;13444;50.562;7.262;2023-04-24T14:26:40;8.05;;;3.75;;
25549;SDS011;13444;50.562;7.262;2023-04-24T14:29:06;9.70;;;3.92;;
25549;SDS011;13444;50.562;7.262;2023-04-24T14:31:31;7.22;;;3.90;;
25549;SDS011;13444;50.562;7.262;2023-04-24T14:33:57;5.95;;;3.80;;
25549;SDS011;13444;50.562;7.262;2023-04-24T14:36:22;9.50;;;4.20;;
25549;SDS011;13444;50.562;7.262;2023-04-24T14:38:48;8.38;;;4.18;;
25549;SDS011;13444;50.562;7.262;2023-04-24T14:41:14;6.85;;;3.65;;
25549;SDS011;13444;50.562;7.262;2023-04-24T14:43:40;6.55;;;3.60;;
25549;SDS011;13444;50.562;7.262;2023-04-24T14:46:06;7.07;;;3.95;;
25549;SDS011;13444;50.562;7.262;2023-04-24T14:48:31;4.95;;;3.60;;
25549;SDS011;13444;50.562;7.262;2023-04-24T14:50:57;6.50;;;3.78;;
25549;SDS011;13444;50.562;7.262;2023-04-24T14:53:23;6.70;;;3.58;;